Aviation Digital Data Service (ADDS)

Output produced by METARs form (2012 UTC 19 October 2017)
found at http://www.aviationweather.gov/adds/metars/
 
KIPT 191954Z VRB03KT 10SM CLR 22/10 A3007 RMK AO2 SLP183 T02220100
KIPT 191854Z 00000KT 10SM CLR 22/10 A3009 RMK AO2 SLP190 T02170100
KIPT 191754Z 13004KT 10SM CLR 19/10 A3012 RMK AO2 SLP198 T01940100 10194 20067 58033
KIPT 191654Z VRB03KT 10SM CLR 17/09 A3016 RMK AO2 SLP213 T01670089
KIPT 191554Z 00000KT 10SM FEW003 14/09 A3020 RMK AO2 SLP227 T01390089
KIPT 191516Z 00000KT 9SM FEW003 11/09 A3021 RMK AO2 T01060089
KIPT 191454Z 00000KT 3SM BR BKN002 09/08 A3021 RMK AO2 SLP233 T00890083 58003
KIPT 191442Z 23004KT 2SM BR OVC002 09/08 A3022 RMK AO2 T00890083
KIPT 191420Z 00000KT 1/2SM FG VV002 08/08 A3022 RMK AO2 T00830083
KIPT 191354Z 00000KT 1/4SM FG VV002 08/08 A3023 RMK AO2 SLP239 T00780078
KIPT 191254Z 00000KT 1/4SM FG VV002 07/07 A3023 RMK AO2 SLP238 T00720067
KIPT 191154Z 00000KT 1/4SM FG VV002 07/07 A3023 RMK AO2 SLP236 T00720072 10083 20061 55001
KIPT 191119Z 01003KT 1/4SM FG VV002 07/06 A3022 RMK AO2 T00670056
KIPT 191107Z 00000KT 1/2SM FG VV002 07/06 A3022 RMK AO2 T00670061
KIPT 191058Z 00000KT 1 1/2SM BR OVC002 07/06 A3022 RMK AO2 T00670061
KIPT 191054Z 00000KT 6SM BR OVC002 07/06 A3022 RMK AO2 SLP235 T00670061
KIPT 191022Z AUTO 00000KT 5SM BR OVC002 06/06 A3023 RMK AO2 T00610061
KIPT 191009Z AUTO 00000KT 1 1/4SM BR OVC002 06/06 A3022 RMK AO2 T00610056
KIPT 190954Z AUTO 34003KT 1/4SM FG VV002 07/06 A3022 RMK AO2 SLP235 T00670061
KIPT 190940Z AUTO 00000KT 1/4SM FG VV002 07/07 A3022 RMK AO2 T00720067
KIPT 190921Z AUTO 00000KT 1/2SM FG VV002 07/06 A3023 RMK AO2 T00670061
KIPT 190913Z AUTO 00000KT 1 1/2SM BR OVC002 07/06 A3022 RMK AO2 VIS 1/4V5 T00720061
KIPT 190854Z AUTO 00000KT 10SM OVC002 07/06 A3023 RMK AO2 SLP236 T00720061 55004
KIPT 190754Z AUTO 00000KT 10SM OVC002 07/06 A3023 RMK AO2 SLP236 T00670056
KIPT 190654Z AUTO 00000KT 10SM OVC002 07/07 A3024 RMK AO2 SLP239 T00720067
KIPT 190634Z AUTO 00000KT 9SM BKN002 08/07 A3024 RMK AO2 T00780067
KIPT 190626Z AUTO 00000KT 9SM SCT002 07/06 A3023 RMK AO2 T00720061
KIPT 190554Z AUTO 00000KT 10SM CLR 08/07 A3024 RMK AO2 SLP240 T00830067 10144 20078 56005
KIPT 190454Z AUTO 00000KT 10SM CLR 08/07 A3024 RMK AO2 SLP240 T00830072 402170044
KIPT 190354Z AUTO 00000KT 10SM CLR 09/08 A3025 RMK AO2 SLP244 T00940078
KIPT 190254Z AUTO 00000KT 10SM CLR 09/08 A3025 RMK AO2 SLP246 T00940083 53002
KIPT 190154Z 30003KT 10SM CLR 11/09 A3025 RMK AO2 SLP247 T01110089
KIPT 190054Z 00000KT 10SM CLR 13/09 A3025 RMK AO2 SLP245 T01280089
KIPT 182354Z 36003KT 10SM CLR 14/09 A3025 RMK AO2 SLP245 T01390094 10217 20139 53008
KIPT 182254Z 00000KT 10SM CLR 16/09 A3023 RMK AO2 SLP239 T01610089
KIPT 182154Z 00000KT 10SM CLR 18/11 A3022 RMK AO2 SLP235 T01830106
KIPT 182054Z 09004KT 10SM CLR 22/09 A3022 RMK AO2 SLP235 T02170094 56020
KIPT 181954Z 11005KT 10SM CLR 22/09 A3024 RMK AO2 SLP241 T02170089
KIPT 181854Z 10003KT 10SM CLR 21/08 A3026 RMK AO2 SLP247 T02060078
KIPT 181754Z VRB04KT 10SM CLR 19/07 A3028 RMK AO2 SLP256 T01940072 10200 20050 58024
KIPT 181703Z VRB03KT 10SM CLR 19/07 A3031 RMK AO2 T01940072
KIPT 181654Z 26004KT 2SM HZ CLR 19/07 A3032 RMK AO2 SLP269 T01890067
KIPT 181554Z 13004KT 10SM CLR 14/08 A3035 RMK AO2 SLP279 T01440078
KIPT 181454Z 00000KT 10SM CLR 11/07 A3035 RMK AO2 SLP281 T01110072 58004
KIPT 181403Z 00000KT 7SM FEW003 08/07 A3036 RMK AO2 T00780067
KIPT 181354Z 32003KT 5SM BR BKN003 07/06 A3037 RMK AO2 SLP286 T00720061
KIPT 181314Z 00000KT 2 1/2SM BR OVC002 06/06 A3037 RMK AO2 T00610056
KIPT 181254Z 00000KT 1SM BR OVC002 06/06 A3037 RMK AO2 SLP286 T00560056
KIPT 181250Z 00000KT 3/4SM BR VV002 06/06 A3037 RMK AO2
KIPT 181220Z 00000KT 1/4SM FG VV003 06/05 A3036 RMK AO2 T00560050
KIPT 181154Z 35003KT 3/4SM BR OVC002 05/04 A3035 RMK AO2 SLP279 T00500044 10056 20044 51017
KIPT 181133Z 33003KT 1/4SM FG VV002 06/05 A3034 RMK AO2 T00560050
KIPT 181125Z 34003KT 1 1/2SM BR OVC002 06/04 A3034 RMK AO2 T00560044
KIPT 181116Z 01003KT 5SM BR OVC002 05/04 A3034 RMK AO2 T00500044
KIPT 181104Z 00000KT 2 1/2SM BR OVC004 05/04 A3034 RMK AO2 CIG 002V006 T00500039
KIPT 181054Z 00000KT 10SM OVC005 05/04 A3034 RMK AO2 SLP276 T00500039
KIPT 181038Z 00000KT 10SM OVC005 04/03 A3033 RMK AO2 CIG 002V006 T00440033
KIPT 181016Z AUTO 00000KT 10SM BKN003 04/03 A3033 RMK AO2 CIG 002V006 T00440033
KIPT 180954Z AUTO 00000KT 10SM BKN005 05/03 A3032 RMK AO2 SLP269 T00500033
KIPT 180923Z AUTO 00000KT 10SM OVC005 05/03 A3031 RMK AO2 T00500033
KIPT 180854Z AUTO 00000KT 10SM BKN003 04/04 A3030 RMK AO2 SLP261 T00440039 53001
KIPT 180844Z AUTO 35003KT 10SM SCT003 04/03 A3030 RMK AO2 T00440033